Time;durP1;ratioP1;P1;durP2;ratioP2;P2;SDS_P1;SDS_P2;PMS_P1;PMS_P2;Temp;Humidity;BMP_temperature;BMP_pressure;BME280_temperature;BME280_humidity;BME280_pressure;Samples;Min_cycle;Max_cycle;Signal;HPM_P1;HPM_P2
2024/01/20 00:03:51;;;;;;;16.63;4.20;;;;;;;14.22;100.00;101203.00;10560059;28;20051;-81
2024/01/20 00:09:13;;;;;;;13.32;4.25;;;;;;;14.31;100.00;101203.03;10559761;28;20050;-82
2024/01/20 00:14:36;;;;;;;15.35;4.07;;;;;;;14.24;100.00;101208.31;10573375;28;20051;-82
2024/01/20 00:20:01;;;;;;;18.80;3.97;;;;;;;14.22;100.00;101202.09;10560566;28;20073;-83
2024/01/20 00:25:24;;;;;;;13.52;2.95;;;;;;;14.17;100.00;101202.06;10569078;28;20043;-82
2024/01/20 00:30:46;;;;;;;13.23;3.25;;;;;;;14.47;100.00;101189.91;10558070;28;20055;-80
2024/01/20 00:36:12;;;;;;;19.58;3.67;;;;;;;14.95;100.00;101182.22;10568179;28;20063;-83
2024/01/20 00:41:34;;;;;;;22.20;4.03;;;;;;;15.21;100.00;101176.09;10581171;28;20662;-82
2024/01/20 00:46:58;;;;;;;23.02;5.03;;;;;;;15.40;100.00;101165.53;10582210;28;20051;-81
2024/01/20 00:52:22;;;;;;;19.02;3.65;;;;;;;15.61;100.00;101166.50;10581604;28;20138;-83
2024/01/20 00:57:45;;;;;;;20.77;4.55;;;;;;;15.64;100.00;101172.69;10581128;28;20047;-82
2024/01/20 01:03:09;;;;;;;19.85;4.15;;;;;;;15.82;100.00;101182.47;10552791;28;20097;-81
2024/01/20 01:08:33;;;;;;;28.95;4.50;;;;;;;15.83;100.00;101178.91;10573757;27;20134;-82
2024/01/20 01:13:56;;;;;;;18.13;3.53;;;;;;;15.93;100.00;101178.94;10565759;28;20446;-82
2024/01/20 01:19:19;;;;;;;16.70;3.58;;;;;;;15.90;100.00;101170.94;10580792;28;20127;-81
2024/01/20 01:24:43;;;;;;;17.73;3.13;;;;;;;15.87;100.00;101164.75;10586517;27;20539;-79
2024/01/20 01:30:07;;;;;;;18.00;3.45;;;;;;;15.95;100.00;101161.16;10579323;28;20060;-80
2024/01/20 01:35:29;;;;;;;18.42;3.28;;;;;;;16.05;100.00;101153.19;10563870;28;20040;-79
2024/01/20 01:40:53;;;;;;;18.23;3.50;;;;;;;16.11;100.00;101148.75;10591990;27;20441;-79
2024/01/20 01:46:16;;;;;;;17.40;3.15;;;;;;;15.88;100.00;101148.75;10592389;27;20036;-81
2024/01/20 01:51:38;;;;;;;17.65;3.80;;;;;;;15.75;100.00;101132.78;10564492;28;20512;-80
2024/01/20 01:57:03;;;;;;;25.27;3.85;;;;;;;15.57;100.00;101136.31;10576550;28;20043;-80
2024/01/20 02:02:26;;;;;;;28.20;5.13;;;;;;;15.42;100.00;101129.19;10571376;27;20059;-80
2024/01/20 02:07:49;;;;;;;25.25;3.70;;;;;;;15.31;100.00;101108.75;10562958;28;20058;-79
2024/01/20 02:13:14;;;;;;;22.83;4.30;;;;;;;15.33;100.00;101114.97;10577332;28;20066;-79
2024/01/20 02:18:37;;;;;;;22.80;4.30;;;;;;;15.26;100.00;101124.69;10578259;28;20179;-80
2024/01/20 02:24:04;;;;;;;19.88;3.78;;;;;;;15.51;100.00;101133.59;10581009;27;20646;-80
2024/01/20 02:29:26;;;;;;;17.13;3.70;;;;;;;15.63;100.00;101128.31;10589735;27;20108;-80
2024/01/20 02:34:49;;;;;;;19.20;3.90;;;;;;;15.89;100.00;101138.97;10562538;28;20048;-80
2024/01/20 02:40:13;;;;;;;21.58;4.22;;;;;;;15.78;100.00;101136.31;10563280;28;20051;-81
2024/01/20 02:45:35;;;;;;;15.07;3.83;;;;;;;15.72;100.00;101139.00;10575760;27;20059;-80
2024/01/20 02:50:58;;;;;;;25.63;4.35;;;;;;;15.72;100.00;101144.31;10576054;28;20488;-80
2024/01/20 02:56:22;;;;;;;23.33;4.97;;;;;;;15.73;100.00;101142.53;10547716;28;20539;-80
2024/01/20 03:01:45;;;;;;;18.85;4.25;;;;;;;15.73;100.00;101142.53;10571093;27;20141;-79
2024/01/20 03:07:07;;;;;;;18.55;4.40;;;;;;;15.68;100.00;101141.66;10562770;28;20104;-79
2024/01/20 03:12:32;;;;;;;18.90;5.38;;;;;;;15.89;100.00;101134.53;10562016;28;20141;-83
2024/01/20 03:17:54;;;;;;;23.63;4.75;;;;;;;15.90;100.00;101133.66;10562443;28;20043;-81
2024/01/20 03:23:17;;;;;;;17.48;4.05;;;;;;;15.89;100.00;101131.88;10576429;28;20043;-81
2024/01/20 03:28:42;;;;;;;19.20;4.47;;;;;;;15.83;100.00;101139.88;10555249;28;20047;-82
2024/01/20 03:34:04;;;;;;;24.85;5.00;;;;;;;15.73;100.00;101122.13;10561964;28;20043;-82
2024/01/20 03:39:26;;;;;;;30.83;4.53;;;;;;;15.61;100.00;101138.09;10576162;28;20047;-81
2024/01/20 03:44:51;;;;;;;31.40;5.65;;;;;;;15.55;100.00;101156.72;10575067;28;20290;-81
2024/01/20 03:50:13;;;;;;;16.33;3.63;;;;;;;15.35;100.00;101169.97;10575889;28;20089;-82
2024/01/20 03:55:35;;;;;;;26.95;4.50;;;;;;;15.43;100.00;101168.19;10575654;28;20079;-82
2024/01/20 04:00:59;;;;;;;19.92;4.90;;;;;;;15.57;100.00;101165.59;10590062;28;20112;-81
2024/01/20 04:06:22;;;;;;;22.00;4.75;;;;;;;15.70;100.00;101188.66;10560227;28;20120;-81
2024/01/20 04:11:44;;;;;;;20.20;4.22;;;;;;;15.81;100.00;101194.03;10560034;28;20040;-80
2024/01/20 04:17:08;;;;;;;29.48;5.53;;;;;;;15.83;100.00;101198.44;10560676;28;20145;-82
2024/01/20 04:22:31;;;;;;;19.25;4.03;;;;;;;15.88;100.00;101195.81;10575128;28;20055;-83
2024/01/20 04:27:53;;;;;;;20.15;3.60;;;;;;;16.04;100.00;101186.91;10575003;28;20377;-81
2024/01/20 04:33:18;;;;;;;20.88;4.05;;;;;;;16.06;100.00;101192.25;10533266;28;20044;-82
2024/01/20 04:38:40;;;;;;;25.00;4.15;;;;;;;16.13;100.00;101194.03;10589335;28;20059;-81
2024/01/20 04:44:03;;;;;;;18.48;4.07;;;;;;;16.35;100.00;101191.34;10559445;28;20048;-82
2024/01/20 04:49:35;;;;;;;26.77;3.55;;;;;;;16.46;100.00;101206.44;10559615;28;20078;-82
2024/01/20 04:54:58;;;;;;;23.27;4.15;;;;;;;16.67;100.00;101201.13;10559491;28;20043;-82
2024/01/20 05:00:21;;;;;;;26.50;4.70;;;;;;;16.58;100.00;101222.41;10574301;28;20054;-84
2024/01/20 05:05:45;;;;;;;27.20;4.72;;;;;;;16.57;100.00;101240.19;10559866;28;20044;-83
2024/01/20 05:11:08;;;;;;;22.45;4.00;;;;;;;16.66;100.00;101250.00;10565173;28;20067;-83
2024/01/20 05:16:31;;;;;;;31.38;4.47;;;;;;;16.50;100.00;101253.50;10567295;28;20051;-83
2024/01/20 05:21:55;;;;;;;20.05;4.22;;;;;;;16.88;100.00;101258.81;10580608;27;20055;-82
2024/01/20 05:27:17;;;;;;;18.35;3.35;;;;;;;16.90;100.00;101265.94;10579817;27;20451;-83
2024/01/20 05:32:41;;;;;;;23.27;4.00;;;;;;;16.99;100.00;101265.03;10552088;28;20044;-83
2024/01/20 05:38:05;;;;;;;14.93;4.00;;;;;;;17.18;100.00;101272.09;10539228;27;20550;-84
2024/01/20 05:43:28;;;;;;;26.27;3.95;;;;;;;17.28;100.00;101299.63;10531580;28;20121;-84
2024/01/20 05:48:50;;;;;;;14.88;3.88;;;;;;;17.35;100.00;101298.72;10563387;27;20055;-83
2024/01/20 05:54:14;;;;;;;29.70;4.07;;;;;;;17.39;100.00;101296.00;10565437;28;20048;-83
2024/01/20 05:59:37;;;;;;;23.52;4.28;;;;;;;17.38;100.00;101299.59;10565849;28;20055;-83
2024/01/20 06:04:59;;;;;;;21.67;5.05;;;;;;;17.46;100.00;101289.75;10579364;28;20058;-83
2024/01/20 06:10:23;;;;;;;29.65;5.72;;;;;;;17.60;100.00;101272.78;10564825;28;20047;-83
2024/01/20 06:15:46;;;;;;;25.23;5.10;;;;;;;17.83;100.00;101262.91;10578600;28;20062;-82
2024/01/20 06:21:08;;;;;;;16.23;4.03;;;;;;;18.14;100.00;101276.94;10593283;27;20432;-83
2024/01/20 06:26:32;;;;;;;25.65;4.00;;;;;;;18.31;100.00;101280.41;10559856;28;20127;-83
2024/01/20 06:31:55;;;;;;;22.67;4.85;;;;;;;18.33;100.00;101279.47;10577658;28;20044;-83
2024/01/20 06:37:21;;;;;;;21.83;7.78;;;;;;;18.46;100.00;101263.31;10570402;28;20176;-84
2024/01/20 06:42:45;;;;;;;36.80;13.57;;;;;;;18.59;100.00;101263.25;10587003;27;20055;-83
2024/01/20 06:48:09;;;;;;;24.73;9.15;;;;;;;18.73;100.00;101263.13;10563051;28;20055;-84
2024/01/20 06:53:34;;;;;;;36.65;13.25;;;;;;;18.88;100.00;101280.81;10561922;28;20072;-84
2024/01/20 06:58:58;;;;;;;31.20;13.80;;;;;;;19.08;100.00;101287.72;10576713;27;20047;-82
2024/01/20 07:04:21;;;;;;;36.97;13.38;;;;;;;19.22;100.00;101295.59;10575068;28;20599;-83
2024/01/20 07:09:43;;;;;;;31.83;12.57;;;;;;;19.37;100.00;101326.66;10576994;28;20047;-83
2024/01/20 07:15:09;;;;;;;29.67;10.88;;;;;;;19.43;100.00;101337.28;10562155;28;20043;-83
2024/01/20 07:20:31;;;;;;;30.38;13.05;;;;;;;19.52;100.00;101345.25;10562315;28;20066;-82
2024/01/20 07:25:54;;;;;;;30.02;11.68;;;;;;;19.71;100.00;101349.50;10576409;28;20540;-82
2024/01/20 07:31:18;;;;;;;37.35;13.93;;;;;;;19.89;100.00;101325.13;10553518;27;20104;-81
2024/01/20 07:36:41;;;;;;;26.98;5.70;;;;;;;20.01;100.00;101339.28;10559403;28;20052;-83
2024/01/20 07:42:04;;;;;;;19.02;7.38;;;;;;;20.22;100.00;101326.44;10561633;28;20063;-82
2024/01/20 07:47:28;;;;;;;26.80;11.55;;;;;;;20.20;100.00;101314.88;10589895;27;20047;-83
2024/01/20 07:52:50;;;;;;;31.30;12.88;;;;;;;20.20;100.00;101274.66;10559729;28;20039;-83
2024/01/20 07:58:13;;;;;;;35.20;17.17;;;;;;;20.29;100.00;101234.25;10575397;28;20051;-83
2024/01/20 08:03:37;;;;;;;43.53;20.67;;;;;;;20.39;100.00;101237.72;10560837;28;20054;-84
2024/01/20 08:09:00;;;;;;;103.72;60.60;;;;;;;20.65;100.00;101202.38;10574749;28;20047;-85
2024/01/20 08:14:22;;;;;;;42.22;21.73;;;;;;;21.64;100.00;101233.47;10574258;28;20047;-83
2024/01/20 08:19:48;;;;;;;30.10;12.73;;;;;;;23.19;100.00;101239.41;10573273;28;20036;-82
2024/01/20 08:25:13;;;;;;;27.17;9.85;;;;;;;24.02;89.82;101233.31;10573677;28;20051;-81
2024/01/20 08:30:36;;;;;;;23.00;10.80;;;;;;;24.65;76.09;101229.41;10558289;28;20142;-82
2024/01/20 08:36:01;;;;;;;23.83;11.05;;;;;;;25.33;69.11;101235.03;10558700;28;20587;-82
2024/01/20 08:41:23;;;;;;;33.50;17.75;;;;;;;26.38;59.20;101223.63;10559400;28;20055;-81
2024/01/20 08:46:47;;;;;;;28.23;13.30;;;;;;;28.53;48.36;101226.19;10581308;28;20075;-82
2024/01/20 08:52:13;;;;;;;25.23;12.95;;;;;;;30.12;40.84;101220.25;10566651;28;20043;-80
2024/01/20 08:57:36;;;;;;;57.40;32.80;;;;;;;31.16;37.12;101213.88;10566411;28;20108;-82
2024/01/20 09:02:58;;;;;;;22.38;10.90;;;;;;;28.51;37.89;101210.91;10567298;28;20116;-78
2024/01/20 09:08:22;;;;;;;35.55;22.48;;;;;;;25.94;42.83;101192.94;10581478;28;20048;-79
2024/01/20 09:13:45;;;;;;;27.73;14.15;;;;;;;26.39;43.42;101192.00;10581210;27;20383;-80
2024/01/20 09:19:07;;;;;;;21.55;9.38;;;;;;;27.41;42.54;101185.56;10564907;27;20040;-82
2024/01/20 09:24:31;;;;;;;25.48;9.73;;;;;;;27.96;40.76;101202.78;10577711;28;20039;-78
2024/01/20 09:29:55;;;;;;;22.38;7.10;;;;;;;28.25;39.87;101203.22;10577521;27;20048;-78
2024/01/20 09:35:17;;;;;;;44.63;27.70;;;;;;;26.47;42.36;101200.69;10563254;27;20036;-80
2024/01/20 09:40:42;;;;;;;37.63;16.75;;;;;;;26.69;42.16;101203.34;10563932;28;20048;-79
2024/01/20 09:46:05;;;;;;;52.75;32.15;;;;;;;27.50;40.04;101176.13;10577590;28;20048;-80
2024/01/20 09:51:28;;;;;;;83.05;57.90;;;;;;;27.64;39.61;101174.50;10574251;28;20056;-79
2024/01/20 09:56:52;;;;;;;88.72;64.85;;;;;;;27.29;40.56;101167.16;10563686;27;20043;-81
2024/01/20 10:02:16;;;;;;;98.55;68.30;;;;;;;26.29;42.98;101160.84;10577908;28;20410;-79
2024/01/20 10:07:39;;;;;;;31.98;17.80;;;;;;;26.89;43.28;101170.84;10563797;28;20062;-78
2024/01/20 10:13:05;;;;;;;39.85;19.88;;;;;;;28.03;40.76;101157.22;10563069;28;20384;-79
2024/01/20 10:18:28;;;;;;;22.05;8.93;;;;;;;27.37;42.68;101141.44;10577224;28;20063;-76
2024/01/20 10:23:51;;;;;;;17.50;6.07;;;;;;;27.11;45.54;101130.09;10534189;28;20661;-77
2024/01/20 10:29:15;;;;;;;16.13;5.35;;;;;;;28.09;44.01;101118.91;10575854;28;20062;-77
2024/01/20 10:34:37;;;;;;;19.55;6.40;;;;;;;28.08;43.95;101126.19;10579063;27;20058;-79
2024/01/20 10:40:03;;;;;;;21.48;6.10;;;;;;;27.87;43.85;101113.69;10564841;28;20059;-79
2024/01/20 10:45:34;;;;;;;17.92;4.85;;;;;;;27.46;43.64;101095.81;10585787;27;20125;-79
2024/01/20 10:50:59;;;;;;;20.65;5.07;;;;;;;27.39;44.79;101078.97;10560785;28;20463;-79
2024/01/20 10:56:23;;;;;;;21.63;6.07;;;;;;;26.16;48.23;101077.44;10570980;28;20054;-79
2024/01/20 11:01:48;;;;;;;18.58;5.47;;;;;;;25.70;48.45;101094.75;10549168;28;20044;-79
2024/01/20 11:07:11;;;;;;;21.20;5.45;;;;;;;25.89;47.54;101105.69;10559616;28;20044;-79
2024/01/20 11:12:34;;;;;;;21.73;5.00;;;;;;;26.00;45.48;101114.22;10568081;27;20051;-77
2024/01/20 11:17:58;;;;;;;25.63;5.55;;;;;;;25.88;44.89;101117.44;10559005;27;20072;-79
2024/01/20 11:23:21;;;;;;;22.27;5.95;;;;;;;24.75;46.65;101120.09;10556407;28;20051;-79
2024/01/20 11:28:47;;;;;;;32.67;7.97;;;;;;;24.54;46.53;101111.88;10593117;27;20054;-79
2024/01/20 11:34:11;;;;;;;20.00;4.90;;;;;;;24.36;46.35;101101.72;10579887;27;20071;-81
2024/01/20 11:39:33;;;;;;;18.85;4.80;;;;;;;23.91;48.26;101092.50;10575323;28;20043;-82
2024/01/20 11:44:56;;;;;;;24.05;5.03;;;;;;;23.69;50.25;101087.84;10545867;28;20039;-83
2024/01/20 11:50:20;;;;;;;18.02;4.82;;;;;;;23.83;47.76;101090.06;10560165;28;20082;-79
2024/01/20 11:55:53;;;;;;;19.05;5.68;;;;;;;23.65;48.89;101072.69;10573842;28;20047;-80
2024/01/20 12:01:17;;;;;;;21.77;5.65;;;;;;;23.37;46.85;101061.00;10546007;28;20083;-80
2024/01/20 12:06:42;;;;;;;15.23;4.80;;;;;;;23.12;47.37;101049.25;10568375;28;20051;-79
2024/01/20 12:12:06;;;;;;;25.02;5.65;;;;;;;23.00;48.73;101051.41;10554838;28;20514;-79
2024/01/20 12:17:28;;;;;;;23.75;7.10;;;;;;;23.08;51.64;101040.41;10556460;28;20067;-81
2024/01/20 12:22:56;;;;;;;16.60;4.78;;;;;;;22.99;55.77;101040.69;10580724;28;20046;-81
2024/01/20 12:28:18;;;;;;;;;;;;;;;23.03;56.67;101045.94;10582515;27;20047;-81
2024/01/20 12:33:41;;;;;;;22.13;4.75;;;;;;;22.96;57.99;101055.16;10548037;27;19943;-80
2024/01/20 12:39:07;;;;;;;23.58;5.30;;;;;;;22.73;58.94;101052.25;10574286;27;20047;-81
2024/01/20 12:44:30;;;;;;;13.52;4.65;;;;;;;22.62;60.42;101047.16;10561758;28;20053;-83
2024/01/20 12:49:54;;;;;;;21.83;6.72;;;;;;;22.43;63.33;101032.47;10579975;28;20493;-84
2024/01/20 12:55:20;;;;;;;21.60;5.65;;;;;;;22.12;63.82;101012.75;10561501;28;20077;-82
2024/01/20 13:00:43;;;;;;;17.48;4.38;;;;;;;22.10;56.23;101012.78;10566731;28;20154;-83
2024/01/20 13:06:06;;;;;;;22.17;9.88;;;;;;;22.42;52.37;101024.44;10591782;27;20055;-83
2024/01/20 13:11:30;;;;;;;19.20;5.25;;;;;;;22.44;52.32;101026.19;10571530;28;20048;-81
2024/01/20 13:16:52;;;;;;;16.40;4.13;;;;;;;22.12;58.88;101019.00;10565273;28;20480;-81
2024/01/20 13:22:14;;;;;;;15.63;3.60;;;;;;;21.96;60.70;101006.91;10544917;28;20044;-79
2024/01/20 13:27:38;;;;;;;14.43;3.35;;;;;;;21.81;62.94;101009.97;10547396;28;20059;-83
2024/01/20 13:33:02;;;;;;;20.02;4.28;;;;;;;21.48;65.04;101007.22;10589175;27;20062;-83
2024/01/20 13:38:26;;;;;;;19.67;3.97;;;;;;;21.29;79.89;101016.69;10564529;28;20436;-77
2024/01/20 13:43:50;;;;;;;21.75;5.28;;;;;;;21.15;81.63;101024.13;10555252;28;20047;-83
2024/01/20 13:49:12;;;;;;;25.38;6.32;;;;;;;21.02;80.73;101028.91;10567921;28;20051;-81
2024/01/20 13:54:35;;;;;;;20.40;5.55;;;;;;;21.20;69.02;101035.69;10564547;28;20048;-80
2024/01/20 13:59:59;;;;;;;21.42;8.32;;;;;;;21.56;50.15;101033.03;10565099;28;20036;-82
2024/01/20 14:05:21;;;;;;;23.25;3.97;;;;;;;21.64;50.12;101048.06;10551640;28;20050;-80
2024/01/20 14:10:44;;;;;;;17.73;4.97;;;;;;;21.44;52.34;101058.41;10578381;28;20058;-83
2024/01/20 14:16:09;;;;;;;25.98;10.23;;;;;;;21.20;57.32;101043.75;10563585;28;20051;-89
2024/01/20 14:21:31;;;;;;;15.38;4.80;;;;;;;21.16;57.69;101046.53;10557777;28;20043;-83
2024/01/20 14:26:54;;;;;;;25.25;4.80;;;;;;;20.95;65.92;101045.19;10555972;28;20040;-80
2024/01/20 14:32:23;;;;;;;21.48;4.20;;;;;;;20.78;65.67;101045.59;10565286;28;20402;-84
2024/01/20 14:37:45;;;;;;;10.00;3.30;;;;;;;20.78;68.40;101037.53;10576482;28;20052;-86
2024/01/20 14:43:08;;;;;;;15.65;3.17;;;;;;;20.58;70.73;101021.84;10562237;28;20564;-81
2024/01/20 14:48:31;;;;;;;20.27;4.20;;;;;;;20.35;66.11;101017.91;10535075;28;20412;-87
2024/01/20 14:53:54;;;;;;;15.30;4.00;;;;;;;20.13;64.64;101017.41;10574278;27;20646;-87
2024/01/20 14:59:17;;;;;;;21.90;5.30;;;;;;;19.75;67.01;101010.09;10569274;27;20054;-84
2024/01/20 15:04:41;;;;;;;28.30;4.55;;;;;;;19.58;76.83;101018.41;10561249;27;20437;-80
2024/01/20 15:10:04;;;;;;;22.10;4.88;;;;;;;19.50;76.79;101009.63;10569709;27;20047;-81
2024/01/20 15:15:26;;;;;;;20.50;4.93;;;;;;;19.33;88.18;101014.34;10561341;28;20116;-83
2024/01/20 15:20:50;;;;;;;13.90;4.47;;;;;;;19.24;98.31;101001.09;10577679;27;20452;-86
2024/01/20 15:26:15;;;;;;;18.85;4.45;;;;;;;19.12;92.56;100999.50;10545333;28;20069;-82
2024/01/20 15:31:40;;;;;;;20.60;3.92;;;;;;;19.17;65.20;101015.47;10531234;28;20143;-85
2024/01/20 15:37:06;;;;;;;17.35;3.40;;;;;;;19.16;60.95;101019.09;10544662;28;20039;-86
2024/01/20 15:42:29;;;;;;;23.27;3.67;;;;;;;18.95;77.03;101010.47;10556975;27;20745;-84
2024/01/20 15:47:51;;;;;;;20.73;4.55;;;;;;;18.80;81.95;101024.06;10538736;27;20031;-84
2024/01/20 15:53:15;;;;;;;20.55;3.50;;;;;;;18.77;72.51;101013.41;10558883;27;20054;-84
2024/01/20 15:58:38;;;;;;;20.13;3.58;;;;;;;18.87;64.29;101017.72;10591230;28;20047;-78
2024/01/20 16:04:00;;;;;;;18.98;4.10;;;;;;;18.97;70.40;101022.03;10572783;28;20044;-85
2024/01/20 16:09:24;;;;;;;23.17;4.00;;;;;;;18.95;63.17;101010.47;10536733;28;20043;-80
2024/01/20 16:14:46;;;;;;;19.10;3.95;;;;;;;18.92;65.33;101010.50;10569945;28;20588;-81
2024/01/20 16:20:10;;;;;;;19.80;3.63;;;;;;;18.83;73.15;101025.81;10557844;28;20044;-86
2024/01/20 16:25:34;;;;;;;28.17;5.22;;;;;;;18.75;76.58;101015.22;10558388;28;20101;-83
2024/01/20 16:30:57;;;;;;;19.08;3.67;;;;;;;18.66;79.82;101007.31;10570248;28;20048;-85
2024/01/20 16:36:19;;;;;;;18.30;3.65;;;;;;;18.73;81.43;101006.31;10556063;28;20048;-84
2024/01/20 16:41:43;;;;;;;26.02;4.03;;;;;;;18.68;80.09;101003.72;10552612;28;20058;-86
2024/01/20 16:47:06;;;;;;;19.63;3.58;;;;;;;18.67;73.99;100993.03;10550591;28;20078;-90
2024/01/20 16:52:30;;;;;;;28.08;4.15;;;;;;;18.81;65.51;100999.09;10555773;28;20047;-88
2024/01/20 16:57:55;;;;;;;22.38;4.25;;;;;;;18.86;55.66;101002.56;10556643;28;20054;-85
2024/01/20 17:03:17;;;;;;;17.38;2.85;;;;;;;18.92;54.67;101015.84;10571519;28;20070;-87
2024/01/20 17:08:40;;;;;;;24.13;4.03;;;;;;;18.91;53.06;100999.81;10592390;27;20047;-86
2024/01/20 17:14:04;;;;;;;24.40;4.07;;;;;;;19.00;49.61;100992.56;10578790;28;20118;-77
2024/01/20 17:19:30;;;;;;;23.30;3.35;;;;;;;19.02;48.61;100985.41;10575262;28;20465;-79
2024/01/20 17:24:53;;;;;;;32.45;4.13;;;;;;;19.08;45.25;100977.28;10554091;28;20747;-80
2024/01/20 17:30:19;;;;;;;28.35;4.50;;;;;;;19.20;42.41;100970.81;10562296;28;20047;-80
2024/01/20 17:35:43;;;;;;;36.70;5.57;;;;;;;19.23;40.01;100961.88;10579171;28;20049;-82
2024/01/20 17:41:06;;;;;;;31.48;4.47;;;;;;;19.37;38.27;100970.53;10547383;28;20052;-83
2024/01/20 17:46:30;;;;;;;42.30;4.43;;;;;;;19.57;34.44;100964.84;10544646;28;20055;-81
2024/01/20 17:51:53;;;;;;;37.70;5.25;;;;;;;19.83;33.36;100974.19;10551399;28;20043;-87
2024/01/20 17:57:15;;;;;;;33.42;7.15;;;;;;;19.79;34.68;100998.41;10561478;27;20498;-85
2024/01/20 18:02:39;;;;;;;28.08;4.10;;;;;;;19.74;36.56;100989.56;10578127;27;20098;-85
2024/01/20 18:08:02;;;;;;;37.22;5.55;;;;;;;19.69;38.03;100978.91;10544177;28;20043;-85
2024/01/20 18:13:24;;;;;;;25.98;4.55;;;;;;;19.64;40.56;100972.75;10564499;28;20056;-85
2024/01/20 18:18:49;;;;;;;32.13;5.20;;;;;;;19.72;41.95;100981.53;10562470;28;20504;-85
2024/01/20 18:24:11;;;;;;;27.17;4.03;;;;;;;19.44;47.43;100972.19;10562898;28;20055;-84
2024/01/20 18:29:35;;;;;;;24.25;4.45;;;;;;;19.23;52.99;100972.59;10556577;28;20709;-83
2024/01/20 18:34:59;;;;;;;25.98;4.32;;;;;;;19.06;58.31;100960.34;10543479;28;20449;-84
2024/01/20 18:40:22;;;;;;;27.35;4.63;;;;;;;18.82;63.13;100952.72;10545514;28;20071;-82
2024/01/20 18:45:44;;;;;;;19.50;3.17;;;;;;;18.89;78.29;100961.53;10590919;27;20051;-84
2024/01/20 18:51:08;;;;;;;18.88;3.33;;;;;;;18.88;82.41;100949.94;10561713;28;20047;-86
2024/01/20 18:56:31;;;;;;;29.83;4.55;;;;;;;18.84;85.53;100942.00;10576068;28;20541;-84
2024/01/20 19:01:53;;;;;;;28.65;4.05;;;;;;;18.86;79.37;100953.53;10548431;27;20055;-83
2024/01/20 19:07:20;;;;;;;29.63;4.43;;;;;;;19.08;66.88;100944.28;10575754;28;20047;-82
2024/01/20 19:12:45;;;;;;;33.63;4.28;;;;;;;19.11;68.74;100937.06;10573045;28;20051;-82
2024/01/20 19:18:08;;;;;;;34.88;5.07;;;;;;;19.15;59.58;100920.97;10579272;28;20055;-83
2024/01/20 19:23:41;;;;;;;36.22;5.90;;;;;;;19.09;67.38;100909.47;10566191;28;20055;-86
2024/01/20 19:29:03;;;;;;;26.13;4.15;;;;;;;19.04;78.21;100907.75;10563772;28;20051;-84
2024/01/20 19:34:29;;;;;;;28.15;5.85;;;;;;;18.91;86.42;100911.53;10564056;28;20055;-84
2024/01/20 19:39:54;;;;;;;53.30;8.95;;;;;;;18.75;54.12;100889.50;10555776;28;20063;-87
2024/01/20 19:45:17;;;;;;;46.08;7.38;;;;;;;19.36;41.45;100891.16;10564770;28;20100;-84
2024/01/20 19:50:41;;;;;;;39.42;5.60;;;;;;;19.55;42.01;100878.31;10551211;28;20510;-83
2024/01/20 19:56:06;;;;;;;24.48;4.18;;;;;;;19.52;50.64;100894.44;10565976;28;20096;-85
2024/01/20 20:01:31;;;;;;;26.85;4.15;;;;;;;19.20;100.00;100897.66;10576595;28;20561;-77
2024/01/20 20:06:54;;;;;;;20.10;3.70;;;;;;;19.15;100.00;100904.91;10568748;28;20055;-81
2024/01/20 20:12:18;;;;;;;17.67;4.10;;;;;;;19.23;100.00;100895.81;10560459;28;20055;-78
2024/01/20 20:17:41;;;;;;;11.18;2.85;;;;;;;19.16;100.00;100912.91;10572593;28;20039;-85
2024/01/20 20:23:04;;;;;;;15.38;2.63;;;;;;;19.07;100.00;100927.31;10574628;28;20044;-84
2024/01/20 20:28:28;;;;;;;11.68;2.50;;;;;;;19.02;100.00;100922.97;10574227;28;20047;-83
2024/01/20 20:33:51;;;;;;;19.17;3.47;;;;;;;18.84;100.00;100917.91;10557976;28;20051;-85
2024/01/20 20:39:14;;;;;;;13.60;2.75;;;;;;;18.92;100.00;100915.97;10557331;27;20059;-85
2024/01/20 20:44:40;;;;;;;11.65;2.25;;;;;;;18.86;100.00;100910.72;10579401;27;20445;-84
2024/01/20 20:50:05;;;;;;;22.98;3.65;;;;;;;18.66;100.00;100906.56;10567884;28;20090;-85
2024/01/20 20:55:30;;;;;;;20.63;3.30;;;;;;;18.50;100.00;100907.69;10569561;28;20131;-86
2024/01/20 21:00:55;;;;;;;22.95;3.75;;;;;;;18.43;100.00;100913.16;10566638;28;20044;-85
2024/01/20 21:06:17;;;;;;;13.02;3.83;;;;;;;18.39;100.00;100914.06;10562251;28;20365;-83
2024/01/20 21:11:40;;;;;;;28.55;5.18;;;;;;;18.38;100.00;100920.34;10581655;28;20051;-83
2024/01/20 21:17:06;;;;;;;14.90;3.55;;;;;;;18.43;100.00;100929.19;10581500;28;20043;-84
2024/01/20 21:22:29;;;;;;;19.67;3.05;;;;;;;18.41;100.00;100921.19;10593909;27;20040;-84
2024/01/20 21:27:52;;;;;;;22.05;3.58;;;;;;;18.41;100.00;100952.38;10566086;28;20040;-83
2024/01/20 21:33:17;;;;;;;15.55;3.75;;;;;;;18.51;100.00;100932.63;10580022;28;20128;-83
2024/01/20 21:38:41;;;;;;;24.95;6.07;;;;;;;18.35;100.00;100963.16;10579057;28;20058;-84
2024/01/20 21:44:07;;;;;;;36.55;12.82;;;;;;;18.54;100.00;100996.75;10594442;27;20446;-85
2024/01/20 21:49:36;;;;;;;23.92;4.35;;;;;;;18.48;100.00;100988.81;10594200;27;20048;-86
2024/01/20 21:54:59;;;;;;;26.92;4.50;;;;;;;18.47;100.00;100985.25;10572547;27;20047;-87
2024/01/20 22:00:23;;;;;;;22.90;5.20;;;;;;;18.63;100.00;101024.31;10592353;27;20510;-85
2024/01/20 22:05:49;;;;;;;25.52;4.70;;;;;;;18.65;100.00;100962.75;10592245;27;20132;-86
2024/01/20 22:11:12;;;;;;;27.48;5.53;;;;;;;18.61;100.00;100983.31;10593482;27;20043;-85
2024/01/20 22:16:36;;;;;;;25.77;4.57;;;;;;;18.96;100.00;100958.75;10563863;27;20067;-87
2024/01/20 22:22:05;;;;;;;25.80;4.20;;;;;;;19.10;100.00;100966.50;10559920;28;20483;-86
2024/01/20 22:27:27;;;;;;;;;;;;;;;19.26;100.00;101007.31;10580003;28;20388;-87
2024/01/20 22:32:52;;;;;;;26.50;3.47;;;;;;;19.09;100.00;100954.06;10564588;28;20359;-86
2024/01/20 22:38:17;;;;;;;37.03;6.38;;;;;;;19.19;100.00;100911.97;10578100;28;20044;-86
2024/01/20 22:43:45;;;;;;;32.90;5.22;;;;;;;19.27;100.00;100893.97;10563310;28;20471;-85
2024/01/20 22:49:10;;;;;;;23.70;4.35;;;;;;;19.15;100.00;100915.63;10562968;28;20172;-86
2024/01/20 22:54:35;;;;;;;34.53;5.82;;;;;;;19.01;100.00;100913.16;10575872;28;20108;-86
2024/01/20 22:59:58;;;;;;;35.05;5.28;;;;;;;18.92;100.00;100900.81;10577293;28;20491;-86
2024/01/20 23:05:23;;;;;;;27.90;5.35;;;;;;;19.24;100.00;100889.56;10548993;28;20097;-86
2024/01/20 23:11:02;;;;;;;25.08;5.20;;;;;;;19.32;100.00;100892.09;10561793;28;20484;-86
2024/01/20 23:16:31;;;;;;;43.55;5.85;;;;;;;19.32;83.65;100894.78;10575610;28;20058;-89
2024/01/20 23:21:55;;;;;;;41.67;5.70;;;;;;;19.34;75.94;100884.94;10576982;28;20055;-89
2024/01/20 23:27:20;;;;;;;47.38;7.03;;;;;;;19.26;72.75;100890.41;10551341;28;20140;-89
2024/01/20 23:32:42;;;;;;;59.90;8.60;;;;;;;19.29;53.23;100878.78;10575394;28;20050;-89
2024/01/20 23:38:05;;;;;;;62.72;8.18;;;;;;;19.66;47.91;100889.69;10561023;28;20048;-90
2024/01/20 23:43:28;;;;;;;59.35;8.05;;;;;;;19.99;47.01;100843.47;10561450;28;20051;-85
2024/01/20 23:48:52;;;;;;;59.60;8.65;;;;;;;20.21;44.45;100842.09;10575088;28;20127;-85
2024/01/20 23:54:15;;;;;;;56.20;7.70;;;;;;;20.22;43.30;100849.19;10574671;28;20047;-85
2024/01/20 23:59:39;;;;;;;44.38;6.75;;;;;;;19.84;44.55;100825.91;10564080;28;20051;-85
